Leuchars, United Kingdom
Current Conditions -  °F | °C
As of 10:50 PM on Thursday 18 Dec 2014 (Local Time) from EGQL Reporting Station
Clear Clear  
Wind Chill: 32°   Ceiling: Unl
Heat Index: 41°   Visibility: 6mi
Dew Point: 36°   Wind: 20mph
Humidity: 81%   Direction: 260°W
Pressure: 29.41"   Gusts: NA
Location:  56.38°N, 2.89°W
Report Text: EGQL 182250Z 26017KT CAVOK 05/02 Q0996 BLU
Loading
Personal Weather Stations






























Interactive Weather Map New forecast layout! Learn more

10-Day Weather Forecast

Advertisements
Track Severe Weather on mobile